createdAt,value
2018-08-07T00:02:02.661Z,14.79
2018-08-07T00:04:37.466Z,14.86
2018-08-07T00:07:12.309Z,14.59
2018-08-07T00:09:47.097Z,14.41
2018-08-07T00:12:21.859Z,14.35
2018-08-07T00:14:56.663Z,14.49
2018-08-07T00:17:31.509Z,14.65
2018-08-07T00:20:07.730Z,14.69
2018-08-07T00:22:42.930Z,14.66
2018-08-07T00:25:17.691Z,14.40
2018-08-07T00:27:52.649Z,14.26
2018-08-07T00:30:27.531Z,14.22
2018-08-07T00:33:02.238Z,14.43
2018-08-07T00:35:36.891Z,14.37
2018-08-07T00:38:11.781Z,14.53
2018-08-07T00:40:46.573Z,14.48
2018-08-07T00:43:24.948Z,14.44
2018-08-07T00:46:01.294Z,14.37
2018-08-07T00:48:35.985Z,14.34
2018-08-07T00:51:10.895Z,14.27
2018-08-07T00:53:45.637Z,14.39
2018-08-07T00:56:20.833Z,14.26
2018-08-07T00:58:55.772Z,14.28
2018-08-07T01:01:30.555Z,14.01
2018-08-07T01:04:05.187Z,13.91
2018-08-07T01:06:39.910Z,13.95
2018-08-07T01:09:14.619Z,14.03
2018-08-07T01:11:49.385Z,14.14
2018-08-07T01:14:24.242Z,14.54
2018-08-07T01:16:59.212Z,14.70
2018-08-07T01:19:33.929Z,14.84
2018-08-07T01:22:14.644Z,14.95
2018-08-07T01:24:49.981Z,15.04
2018-08-07T01:27:24.687Z,14.99
2018-08-07T01:29:59.532Z,15.01
2018-08-07T01:32:34.690Z,14.94
2018-08-07T01:35:09.948Z,14.42
2018-08-07T01:37:44.724Z,13.54
2018-08-07T01:40:19.861Z,13.69
2018-08-07T01:42:54.688Z,13.72
2018-08-07T01:45:29.542Z,13.76
2018-08-07T01:48:05.639Z,13.35
2018-08-07T01:50:40.362Z,13.15
2018-08-07T01:53:15.104Z,12.94
2018-08-07T01:55:50.177Z,12.85
2018-08-07T01:58:25.004Z,12.89
2018-08-07T02:01:00.196Z,12.87
2018-08-07T02:03:35.118Z,12.93
2018-08-07T02:06:09.978Z,13.13
2018-08-07T02:08:44.756Z,13.41
2018-08-07T02:11:21.998Z,13.70
2018-08-07T02:13:56.811Z,13.93
2018-08-07T02:16:31.529Z,13.74
2018-08-07T02:19:06.420Z,13.68
2018-08-07T02:21:41.301Z,13.77
2018-08-07T02:24:16.411Z,13.59
2018-08-07T02:26:51.188Z,13.55
2018-08-07T02:29:25.834Z,13.49
2018-08-07T02:32:00.722Z,13.50
2018-08-07T02:34:35.452Z,13.67
2018-08-07T02:37:10.826Z,13.77
2018-08-07T02:39:45.849Z,13.64
2018-08-07T02:42:21.094Z,13.61
2018-08-07T02:44:55.840Z,13.57
2018-08-07T02:47:30.797Z,13.37
2018-08-07T02:50:08.753Z,13.08
2018-08-07T02:52:43.672Z,12.68
2018-08-07T02:55:18.676Z,12.58
2018-08-07T02:57:53.600Z,12.63
2018-08-07T03:00:28.848Z,12.62
2018-08-07T03:03:03.613Z,12.78
2018-08-07T03:05:38.321Z,12.90
2018-08-07T03:08:12.989Z,12.99
2018-08-07T03:10:47.716Z,12.92
2018-08-07T03:13:22.441Z,13.05
2018-08-07T03:15:57.651Z,13.00
2018-08-07T03:18:32.569Z,12.62
